Time;durP1;ratioP1;P1;durP2;ratioP2;P2;SDS_P1;SDS_P2;PMS_P1;PMS_P2;Temp;Humidity;BMP_temperature;BMP_pressure;BME280_temperature;BME280_humidity;BME280_pressure;Samples;Min_cycle;Max_cycle;Signal;HPM_P1;HPM_P2
2021/06/12 00:00:37;;;;;;;10.77;9.80;;;21.90;99.90;;;;;;5074020;28;20174;-59
2021/06/12 00:03:05;;;;;;;10.77;9.77;;;21.90;99.90;;;;;;5074080;28;20444;-58
2021/06/12 00:05:31;;;;;;;10.23;9.40;;;21.90;99.90;;;;;;5074288;28;20189;-59
2021/06/12 00:07:58;;;;;;;11.03;10.13;;;21.90;99.90;;;;;;5074346;28;20400;-58
2021/06/12 00:10:30;;;;;;;12.10;11.17;;;21.80;99.90;;;;;;5074267;28;20467;-59
2021/06/12 00:12:59;;;;;;;9.93;9.17;;;21.60;99.90;;;;;;5073735;28;20428;-59
2021/06/12 00:15:27;;;;;;;10.97;10.00;;;21.70;99.90;;;;;;5073949;28;20450;-59
2021/06/12 00:17:53;;;;;;;10.50;9.60;;;21.60;99.90;;;;;;5074557;28;20418;-59
2021/06/12 00:20:25;;;;;;;9.70;9.00;;;21.60;99.90;;;;;;5074180;28;20488;-59
2021/06/12 00:22:51;;;;;;;10.17;9.27;;;21.60;99.90;;;;;;5073891;28;20205;-59
2021/06/12 00:25:21;;;;;;;10.20;9.50;;;21.60;99.90;;;;;;5073775;28;20420;-59
2021/06/12 00:27:46;;;;;;;10.27;9.57;;;21.50;99.90;;;;;;5073742;28;20584;-58
2021/06/12 00:30:13;;;;;;;9.70;8.90;;;21.60;99.90;;;;;;5073581;28;20443;-59
2021/06/12 00:32:39;;;;;;;10.20;9.20;;;21.50;99.90;;;;;;5073914;28;20272;-59
2021/06/12 00:35:10;;;;;;;9.47;8.77;;;21.40;99.90;;;;;;5073384;28;20437;-59
2021/06/12 00:37:37;;;;;;;10.67;9.70;;;21.30;99.90;;;;;;5073554;28;20462;-59
2021/06/12 00:40:09;;;;;;;10.43;9.53;;;21.40;99.90;;;;;;5055629;28;20419;-58
2021/06/12 00:42:38;;;;;;;10.30;9.40;;;21.40;99.90;;;;;;5073368;28;20827;-59
2021/06/12 00:45:10;;;;;;;10.67;9.87;;;21.30;99.90;;;;;;5073346;28;20455;-58
2021/06/12 00:47:36;;;;;;;10.47;9.67;;;21.30;99.90;;;;;;5073358;28;20407;-60
2021/06/12 00:50:02;;;;;;;10.73;9.93;;;21.20;99.90;;;;;;5073307;28;20392;-59
2021/06/12 00:52:28;;;;;;;10.83;9.73;;;21.10;99.90;;;;;;5073473;28;20178;-58
2021/06/12 00:54:53;;;;;;;9.17;8.50;;;21.10;99.90;;;;;;5073038;28;20407;-59
2021/06/12 00:57:21;;;;;;;10.60;9.70;;;21.10;99.90;;;;;;5073648;28;20258;-59
2021/06/12 00:59:46;;;;;;;12.77;11.77;;;21.10;99.90;;;;;;5073055;28;20170;-60
2021/06/12 01:02:12;;;;;;;12.23;11.17;;;21.10;99.90;;;;;;5072874;28;20531;-57
2021/06/12 01:04:38;;;;;;;14.30;12.93;;;21.00;99.90;;;;;;5072814;28;20177;-59
2021/06/12 01:07:03;;;;;;;13.23;11.83;;;21.00;99.90;;;;;;5072993;28;20186;-58
2021/06/12 01:09:29;;;;;;;13.60;12.40;;;21.00;99.90;;;;;;5072983;28;20166;-59
2021/06/12 01:12:05;;;;;;;13.60;12.20;;;21.00;99.90;;;;;;5072946;28;20227;-58
2021/06/12 01:14:33;;;;;;;12.27;11.27;;;20.90;99.90;;;;;;5072342;28;20208;-57
2021/06/12 01:17:07;;;;;;;12.53;11.33;;;20.90;99.90;;;;;;5072854;28;20531;-59
2021/06/12 01:19:57;;;;;;;11.60;10.60;;;20.90;99.90;;;;;;5072869;28;20484;-58
2021/06/12 01:22:27;;;;;;;12.63;11.33;;;20.80;99.90;;;;;;5073003;28;20823;-59
2021/06/12 01:24:55;;;;;;;11.70;10.60;;;20.80;99.90;;;;;;5054696;28;20412;-59
2021/06/12 01:27:33;;;;;;;12.20;11.07;;;20.80;99.90;;;;;;5072790;28;20400;-59
2021/06/12 01:30:05;;;;;;;12.50;11.30;;;20.70;99.90;;;;;;5072544;28;20384;-57
2021/06/12 01:32:33;;;;;;;13.67;12.47;;;20.60;99.90;;;;;;5057329;28;20561;-59
2021/06/12 01:35:04;;;;;;;14.80;13.50;;;20.70;99.90;;;;;;5072433;28;20426;-60
2021/06/12 01:37:35;;;;;;;14.67;13.37;;;20.60;99.90;;;;;;5073584;28;20780;-57
2021/06/12 01:40:02;;;;;;;12.30;11.27;;;20.60;99.90;;;;;;5073422;28;20396;-58
2021/06/12 01:42:28;;;;;;;12.30;11.33;;;20.60;99.90;;;;;;5072603;28;20558;-58
2021/06/12 01:44:56;;;;;;;14.10;11.70;;;20.50;99.90;;;;;;5072524;28;20451;-59
2021/06/12 01:47:22;;;;;;;14.80;13.50;;;20.50;99.90;;;;;;5072942;28;20420;-59
2021/06/12 01:49:50;;;;;;;18.73;16.90;;;20.40;99.90;;;;;;5073107;28;20400;-57
2021/06/12 01:52:16;;;;;;;20.70;18.80;;;20.30;99.90;;;;;;5073041;28;20408;-58
2021/06/12 01:54:43;;;;;;;16.23;14.63;;;20.30;99.90;;;;;;5073355;28;20412;-58
2021/06/12 01:57:10;;;;;;;18.93;16.67;;;20.40;99.90;;;;;;5073125;28;20825;-59
2021/06/12 01:59:38;;;;;;;19.10;17.30;;;20.50;99.90;;;;;;5075880;28;20404;-59
2021/06/12 02:02:05;;;;;;;18.47;16.60;;;20.40;99.90;;;;;;5076930;28;20407;-59
2021/06/12 02:04:31;;;;;;;14.93;13.63;;;20.40;99.90;;;;;;5076206;28;20405;-60
2021/06/12 02:07:01;;;;;;;14.67;13.33;;;20.40;99.90;;;;;;5072862;28;20428;-59
2021/06/12 02:09:29;;;;;;;13.77;12.57;;;20.30;99.90;;;;;;5072624;28;20728;-58
2021/06/12 02:11:56;;;;;;;12.40;11.40;;;20.40;99.90;;;;;;5072426;28;20395;-59
2021/06/12 02:14:23;;;;;;;13.13;11.80;;;20.40;99.90;;;;;;5055569;28;20405;-59
2021/06/12 02:16:51;;;;;;;12.67;11.50;;;20.40;99.90;;;;;;5075354;28;20524;-59
2021/06/12 02:19:17;;;;;;;13.00;12.07;;;20.30;99.90;;;;;;5067276;28;20416;-59
2021/06/12 02:21:44;;;;;;;11.53;10.63;;;20.30;99.90;;;;;;5056363;28;20409;-59
2021/06/12 02:24:10;;;;;;;11.27;10.37;;;20.20;99.90;;;;;;5056255;28;20445;-58
2021/06/12 02:26:42;;;;;;;10.67;9.70;;;20.10;99.90;;;;;;5056083;28;20413;-60
2021/06/12 02:29:12;;;;;;;13.27;12.20;;;20.10;99.90;;;;;;5055839;28;20484;-60
2021/06/12 02:31:44;;;;;;;11.03;10.13;;;20.00;99.90;;;;;;5056092;28;20408;-59
2021/06/12 02:34:10;;;;;;;12.00;11.10;;;20.00;99.90;;;;;;5056376;28;20381;-59
2021/06/12 02:36:35;;;;;;;10.47;9.60;;;20.10;99.90;;;;;;5086929;22;20853;-50
2021/06/12 02:39:04;;;;;;;11.13;10.13;;;20.10;99.90;;;;;;5076209;28;20252;-51
2021/06/12 02:41:30;;;;;;;10.67;9.77;;;20.10;99.90;;;;;;5076595;28;20396;-51
2021/06/12 02:43:55;;;;;;;11.27;10.27;;;20.00;99.90;;;;;;5075788;28;20443;-55
2021/06/12 02:46:29;;;;;;;11.20;10.30;;;20.00;99.90;;;;;;5075952;28;20428;-54
2021/06/12 02:49:01;;;;;;;10.60;9.80;;;20.00;99.90;;;;;;5075975;28;20635;-54
2021/06/12 02:51:29;;;;;;;12.30;11.30;;;20.00;99.90;;;;;;5076257;28;20442;-55
2021/06/12 02:53:57;;;;;;;11.07;10.17;;;19.90;99.90;;;;;;5074314;28;20416;-54
2021/06/12 02:56:23;;;;;;;11.27;10.40;;;19.90;99.90;;;;;;5074933;28;20444;-55
2021/06/12 02:58:50;;;;;;;10.70;9.90;;;19.90;99.90;;;;;;5074982;28;20477;-55
2021/06/12 03:01:16;;;;;;;10.50;9.50;;;19.80;99.90;;;;;;5075572;28;20424;-53
2021/06/12 03:03:43;;;;;;;11.63;10.60;;;19.80;99.90;;;;;;5075773;28;20440;-55
2021/06/12 03:06:09;;;;;;;11.60;10.70;;;19.70;99.90;;;;;;5077029;28;20429;-55
2021/06/12 03:08:43;;;;;;;12.73;11.70;;;19.70;99.90;;;;;;5076061;28;20400;-54
2021/06/12 03:11:11;;;;;;;12.17;11.17;;;19.60;99.90;;;;;;5076164;28;20380;-55
2021/06/12 03:13:41;;;;;;;11.40;10.60;;;19.60;99.90;;;;;;5075148;28;20404;-55
2021/06/12 03:16:07;;;;;;;14.93;13.73;;;19.60;99.90;;;;;;5075550;28;20916;-54
2021/06/12 03:18:35;;;;;;;16.70;15.20;;;19.50;99.90;;;;;;5075491;28;20407;-55
2021/06/12 03:21:03;;;;;;;16.80;15.40;;;19.50;99.90;;;;;;5075503;28;20420;-55
2021/06/12 03:23:31;;;;;;;13.23;12.13;;;19.40;99.90;;;;;;5075210;28;20444;-55
2021/06/12 03:25:57;;;;;;;11.40;10.50;;;19.50;99.90;;;;;;5074562;28;20420;-55
2021/06/12 03:28:24;;;;;;;12.03;10.97;;;19.50;99.90;;;;;;5074988;28;20403;-55
2021/06/12 03:30:50;;;;;;;11.30;10.40;;;19.60;99.90;;;;;;5075000;28;20757;-52
2021/06/12 03:33:16;;;;;;;15.43;14.13;;;19.70;99.90;;;;;;5075557;28;20410;-53
2021/06/12 03:35:42;;;;;;;13.70;12.60;;;19.60;99.90;;;;;;5076481;28;20248;-51
2021/06/12 03:38:08;;;;;;;11.20;10.40;;;19.50;99.90;;;;;;5074863;28;20481;-54
2021/06/12 03:40:35;;;;;;;11.70;10.90;;;19.50;99.90;;;;;;5074790;28;20402;-54
2021/06/12 03:43:02;;;;;;;11.40;10.50;;;19.50;99.90;;;;;;5074532;28;20501;-52
2021/06/12 03:45:30;;;;;;;10.93;9.90;;;19.60;99.90;;;;;;5074358;28;20436;-53
2021/06/12 03:47:59;;;;;;;9.07;8.43;;;19.60;99.90;;;;;;5074824;28;20793;-52
2021/06/12 03:50:26;;;;;;;10.20;9.20;;;19.50;99.90;;;;;;5074549;28;20445;-54
2021/06/12 03:52:53;;;;;;;12.03;10.97;;;19.60;99.90;;;;;;5074819;28;20480;-51
2021/06/12 03:55:20;;;;;;;11.50;10.50;;;19.60;99.90;;;;;;5074481;28;20396;-52
2021/06/12 03:57:47;;;;;;;11.27;10.47;;;19.50;99.90;;;;;;5074104;28;20913;-54
2021/06/12 04:00:14;;;;;;;10.17;9.43;;;19.60;99.90;;;;;;5056261;28;20412;-55
2021/06/12 04:02:40;;;;;;;9.90;9.13;;;19.60;99.90;;;;;;5074229;28;21000;-54
2021/06/12 04:05:06;;;;;;;10.50;9.50;;;19.60;99.90;;;;;;5056380;28;20505;-54
2021/06/12 04:07:32;;;;;;;10.57;9.77;;;19.60;99.90;;;;;;5074249;28;20189;-52
2021/06/12 04:09:58;;;;;;;8.70;8.10;;;19.50;99.90;;;;;;5074258;28;20400;-55
2021/06/12 04:12:24;;;;;;;10.20;9.30;;;19.60;99.90;;;;;;5074094;28;20416;-55
2021/06/12 04:14:49;;;;;;;8.70;8.10;;;19.60;99.90;;;;;;5073576;28;20174;-55
2021/06/12 04:17:16;;;;;;;10.50;9.67;;;19.70;99.90;;;;;;5074150;28;20276;-54
2021/06/12 04:19:42;;;;;;;9.47;8.67;;;19.70;99.90;;;;;;5074190;28;20647;-55
2021/06/12 04:22:08;;;;;;;9.53;8.93;;;19.70;99.90;;;;;;5074005;28;20423;-55
2021/06/12 04:24:34;;;;;;;10.37;9.60;;;19.70;99.90;;;;;;5074140;28;20400;-54
2021/06/12 04:27:00;;;;;;;8.80;8.20;;;19.70;99.90;;;;;;5056248;28;20225;-55
2021/06/12 04:29:27;;;;;;;8.90;8.00;;;19.80;99.90;;;;;;5074012;28;20791;-54
2021/06/12 04:31:52;;;;;;;8.30;7.70;;;19.90;99.90;;;;;;5074120;28;20400;-55
2021/06/12 04:34:18;;;;;;;8.90;8.20;;;20.00;99.90;;;;;;5073907;28;20405;-55
2021/06/12 04:36:43;;;;;;;8.33;7.73;;;19.90;99.90;;;;;;5073649;28;20205;-53
2021/06/12 04:39:09;;;;;;;9.10;8.40;;;20.00;99.90;;;;;;5074090;28;20182;-55
2021/06/12 04:41:36;;;;;;;8.80;8.10;;;20.10;99.90;;;;;;5073809;28;20174;-55
2021/06/12 04:44:02;;;;;;;7.83;7.23;;;20.10;99.90;;;;;;5073554;28;20196;-55
2021/06/12 04:46:27;;;;;;;8.30;7.70;;;20.20;99.90;;;;;;5073377;28;20432;-55
2021/06/12 04:48:53;;;;;;;7.90;7.20;;;20.30;99.90;;;;;;5074075;28;20526;-54
2021/06/12 04:51:19;;;;;;;8.77;8.07;;;20.40;99.90;;;;;;5073719;28;20188;-53
2021/06/12 04:53:44;;;;;;;10.37;9.43;;;20.40;99.90;;;;;;5073407;28;20694;-55
2021/06/12 04:56:10;;;;;;;9.00;8.30;;;20.30;99.90;;;;;;5073867;28;20647;-55
2021/06/12 04:58:36;;;;;;;8.90;8.30;;;20.10;99.90;;;;;;5073028;28;20548;-53
2021/06/12 05:01:01;;;;;;;8.70;8.10;;;20.20;99.90;;;;;;5073364;28;20534;-53
2021/06/12 05:03:27;;;;;;;9.70;9.00;;;20.30;99.90;;;;;;5073230;28;20202;-54
2021/06/12 05:05:53;;;;;;;8.60;7.97;;;20.50;99.90;;;;;;5073206;28;20170;-55
2021/06/12 05:08:18;;;;;;;9.50;8.80;;;20.60;99.90;;;;;;5073169;28;20170;-55
2021/06/12 05:10:44;;;;;;;9.43;8.70;;;20.60;99.90;;;;;;5073832;28;20169;-55
2021/06/12 05:13:10;;;;;;;10.57;9.77;;;20.80;99.90;;;;;;5072874;28;20170;-55
2021/06/12 05:15:36;;;;;;;8.60;7.80;;;20.90;99.90;;;;;;5073290;28;20475;-55
2021/06/12 05:18:05;;;;;;;9.27;8.57;;;21.00;99.90;;;;;;5073321;28;20587;-55
2021/06/12 05:20:35;;;;;;;10.00;9.20;;;21.10;99.90;;;;;;5073614;28;20408;-55
2021/06/12 05:23:04;;;;;;;10.50;9.53;;;21.20;99.90;;;;;;5073007;28;21070;-55
2021/06/12 05:25:34;;;;;;;9.37;8.67;;;21.30;99.90;;;;;;5073071;28;20778;-55
2021/06/12 05:28:00;;;;;;;8.40;7.80;;;21.40;99.90;;;;;;5073144;28;20454;-53
2021/06/12 05:30:26;;;;;;;9.43;8.73;;;21.50;99.90;;;;;;5073929;28;20400;-55
2021/06/12 05:32:53;;;;;;;10.50;9.53;;;21.50;99.90;;;;;;5072933;28;20180;-53
2021/06/12 05:35:18;;;;;;;10.27;9.57;;;21.60;99.90;;;;;;5075440;28;20673;-55
2021/06/12 05:37:44;;;;;;;10.00;9.30;;;21.70;99.90;;;;;;5072233;28;20448;-55
2021/06/12 05:40:11;;;;;;;9.10;8.50;;;21.90;99.90;;;;;;5072117;28;20454;-53
2021/06/12 05:42:37;;;;;;;10.27;9.40;;;21.90;99.90;;;;;;5071868;28;20699;-54
2021/06/12 05:45:05;;;;;;;9.97;9.20;;;22.00;99.90;;;;;;5072180;28;20412;-52
2021/06/12 05:47:31;;;;;;;9.30;8.70;;;22.20;99.90;;;;;;5072564;28;20662;-51
2021/06/12 05:49:56;;;;;;;8.73;8.13;;;22.30;99.90;;;;;;5073984;28;20400;-51
2021/06/12 05:52:22;;;;;;;8.57;7.97;;;22.30;99.90;;;;;;5075665;28;20238;-51
2021/06/12 05:54:47;;;;;;;8.40;7.70;;;22.50;99.90;;;;;;5076087;28;20205;-51
2021/06/12 05:57:13;;;;;;;8.63;7.93;;;22.60;99.90;;;;;;5075386;28;20189;-51
2021/06/12 05:59:38;;;;;;;8.70;8.00;;;22.70;99.90;;;;;;5075128;28;20205;-55
2021/06/12 06:02:04;;;;;;;9.70;8.87;;;22.80;99.90;;;;;;5075358;28;20169;-53
2021/06/12 06:04:30;;;;;;;9.30;8.60;;;22.90;99.90;;;;;;5075426;28;20170;-55
2021/06/12 06:06:55;;;;;;;7.63;7.13;;;23.10;99.90;;;;;;5075624;28;20182;-54
2021/06/12 06:09:21;;;;;;;8.87;8.27;;;23.30;99.90;;;;;;5075656;28;20267;-55
2021/06/12 06:11:46;;;;;;;8.63;7.93;;;23.40;99.90;;;;;;5075362;28;20174;-55
2021/06/12 06:14:12;;;;;;;9.10;8.30;;;23.40;99.90;;;;;;5075269;28;20173;-55
2021/06/12 06:16:37;;;;;;;10.40;9.30;;;23.50;99.90;;;;;;5075130;28;20190;-54
2021/06/12 06:19:03;;;;;;;9.70;9.00;;;23.40;99.90;;;;;;5075512;28;20630;-54
2021/06/12 06:21:29;;;;;;;9.70;8.90;;;23.10;99.90;;;;;;5075121;28;20172;-55
2021/06/12 06:23:54;;;;;;;10.30;9.50;;;23.10;99.90;;;;;;5075352;28;20233;-53
2021/06/12 06:26:20;;;;;;;10.43;9.73;;;23.00;99.90;;;;;;5075150;28;20189;-55
2021/06/12 06:28:46;;;;;;;9.47;8.67;;;22.90;99.90;;;;;;5074928;28;20179;-55
2021/06/12 06:31:12;;;;;;;9.10;8.40;;;23.20;99.90;;;;;;5075133;28;20162;-55
2021/06/12 06:33:38;;;;;;;8.23;7.53;;;23.40;99.90;;;;;;5075202;28;20197;-55
2021/06/12 06:36:03;;;;;;;8.30;7.70;;;23.60;99.90;;;;;;5072509;28;71276;-53
2021/06/12 06:38:29;;;;;;;10.00;9.00;;;23.80;99.90;;;;;;5076812;28;20157;-55
2021/06/12 06:40:55;;;;;;;10.97;9.90;;;24.00;99.90;;;;;;5076130;28;20439;-56
2021/06/12 06:43:21;;;;;;;10.00;8.60;;;24.00;99.90;;;;;;5075686;28;20201;-55
2021/06/12 06:45:47;;;;;;;8.33;7.73;;;24.10;99.90;;;;;;5075853;28;20199;-56
2021/06/12 06:48:13;;;;;;;9.80;9.00;;;24.10;99.90;;;;;;5076164;28;20170;-55
2021/06/12 06:50:40;;;;;;;9.10;8.50;;;24.20;99.90;;;;;;5076147;28;20170;-55
2021/06/12 06:53:06;;;;;;;10.00;9.13;;;24.30;99.90;;;;;;5057986;28;20490;-56
2021/06/12 06:55:32;;;;;;;9.87;8.97;;;24.50;99.90;;;;;;5075890;28;20408;-56
2021/06/12 06:57:58;;;;;;;10.43;9.63;;;24.20;99.90;;;;;;5075802;28;21002;-55
2021/06/12 07:00:26;;;;;;;10.70;9.70;;;24.30;99.90;;;;;;5075407;28;20634;-56
2021/06/12 07:02:52;;;;;;;11.93;10.80;;;24.10;99.90;;;;;;5075753;28;20190;-53
2021/06/12 07:05:18;;;;;;;11.87;10.70;;;24.30;99.90;;;;;;5075701;28;20401;-56
2021/06/12 07:07:43;;;;;;;8.97;8.27;;;24.60;99.90;;;;;;5075847;28;20427;-54
2021/06/12 07:10:10;;;;;;;10.37;9.37;;;24.70;99.90;;;;;;5075979;28;20230;-53
2021/06/12 07:12:36;;;;;;;10.43;9.63;;;25.00;99.90;;;;;;5075469;28;20180;-53
2021/06/12 07:15:01;;;;;;;10.07;9.27;;;25.00;99.90;;;;;;5075215;28;20412;-56
2021/06/12 07:17:27;;;;;;;10.37;9.37;;;25.10;99.90;;;;;;5074993;28;20231;-56
2021/06/12 07:19:53;;;;;;;9.93;9.00;;;25.20;99.90;;;;;;5075183;28;20178;-55
2021/06/12 07:22:18;;;;;;;9.80;9.10;;;24.80;99.90;;;;;;5075346;28;20412;-56
2021/06/12 07:24:44;;;;;;;9.10;8.40;;;25.00;99.90;;;;;;5075173;28;20189;-56
2021/06/12 07:27:10;;;;;;;7.70;7.10;;;25.00;99.90;;;;;;5075083;28;20190;-56
2021/06/12 07:29:35;;;;;;;8.10;7.50;;;25.00;99.90;;;;;;5074906;28;20166;-56
2021/06/12 07:32:01;;;;;;;7.37;6.87;;;25.20;99.90;;;;;;5056939;28;20257;-56
2021/06/12 07:34:26;;;;;;;7.40;6.80;;;25.40;99.90;;;;;;5077628;28;20633;-55
2021/06/12 07:36:52;;;;;;;7.73;7.13;;;25.50;99.90;;;;;;5074967;28;20205;-55
2021/06/12 07:39:18;;;;;;;8.20;7.50;;;25.70;99.90;;;;;;5075304;28;20170;-55
2021/06/12 07:41:43;;;;;;;7.43;6.93;;;25.60;99.90;;;;;;5074912;28;20170;-55
2021/06/12 07:44:09;;;;;;;7.03;6.43;;;25.60;99.90;;;;;;5074645;28;20230;-55
2021/06/12 07:46:35;;;;;;;6.07;5.57;;;25.80;99.90;;;;;;5074817;28;20670;-53
2021/06/12 07:49:03;;;;;;;5.37;5.00;;;25.80;99.90;;;;;;5075093;28;20181;-55
2021/06/12 07:51:32;;;;;;;5.53;5.10;;;26.00;99.90;;;;;;5075064;28;20423;-53
2021/06/12 07:53:59;;;;;;;5.67;5.27;;;26.30;99.90;;;;;;5074826;28;20411;-55
2021/06/12 07:56:25;;;;;;;6.40;5.90;;;26.60;99.90;;;;;;5074737;28;20436;-55
2021/06/12 07:58:50;;;;;;;5.93;5.53;;;26.30;99.90;;;;;;5074609;28;20833;-55
2021/06/12 08:01:16;;;;;;;6.43;5.93;;;26.50;99.90;;;;;;5074730;28;20174;-54
2021/06/12 08:03:41;;;;;;;5.97;5.57;;;26.40;99.90;;;;;;5074607;28;20225;-55
2021/06/12 08:06:07;;;;;;;8.03;7.40;;;26.50;99.90;;;;;;5074206;28;20190;-55
2021/06/12 08:08:32;;;;;;;7.27;6.67;;;26.20;99.90;;;;;;5074225;28;20177;-53
2021/06/12 08:10:58;;;;;;;6.30;5.70;;;26.30;99.90;;;;;;5074161;28;20174;-55
2021/06/12 08:13:24;;;;;;;7.07;6.57;;;26.60;99.90;;;;;;5073884;28;20185;-56
2021/06/12 08:15:49;;;;;;;10.70;9.70;;;26.60;99.90;;;;;;5074561;28;20196;-61
2021/06/12 08:18:15;;;;;;;8.87;8.07;;;26.80;99.90;;;;;;5075193;28;20177;-60
2021/06/12 08:20:41;;;;;;;7.90;7.20;;;26.60;99.90;;;;;;5074480;28;20177;-61
2021/06/12 08:23:06;;;;;;;8.53;7.83;;;26.80;99.90;;;;;;5074050;28;20216;-60
2021/06/12 08:25:32;;;;;;;10.50;7.77;;;26.90;99.90;;;;;;5074111;28;20219;-61
2021/06/12 08:28:05;;;;;;;8.53;7.67;;;27.30;99.90;;;;;;5073819;28;20186;-61
2021/06/12 08:30:36;;;;;;;8.30;7.50;;;27.40;99.90;;;;;;5074157;28;20214;-60
2021/06/12 08:33:06;;;;;;;6.73;6.17;;;27.20;99.90;;;;;;5074088;28;20392;-61
2021/06/12 08:35:33;;;;;;;6.23;5.73;;;27.30;99.90;;;;;;5073860;28;20405;-61
2021/06/12 08:37:58;;;;;;;6.17;5.77;;;27.40;99.90;;;;;;5089469;22;20486;-59
2021/06/12 08:40:24;;;;;;;7.40;6.70;;;27.00;99.90;;;;;;5073746;28;20392;-58
2021/06/12 08:42:52;;;;;;;8.43;7.73;;;27.00;99.90;;;;;;5071150;28;20197;-58
2021/06/12 08:45:19;;;;;;;8.97;8.37;;;26.90;99.90;;;;;;5063634;28;20409;-58
2021/06/12 08:47:45;;;;;;;9.40;7.50;;;27.00;99.90;;;;;;5053455;28;20865;-59
2021/06/12 08:50:12;;;;;;;7.60;7.00;;;27.00;99.90;;;;;;5053426;28;20491;-58
2021/06/12 08:52:39;;;;;;;8.27;5.83;;;27.00;99.90;;;;;;5053277;28;20492;-61
2021/06/12 08:55:06;;;;;;;6.00;5.50;;;26.90;99.90;;;;;;5053607;28;20452;-59
2021/06/12 08:57:32;;;;;;;6.60;6.10;;;27.10;99.90;;;;;;5053169;28;20471;-59
2021/06/12 08:59:58;;;;;;;6.97;6.43;;;27.40;99.90;;;;;;5053360;28;20762;-59
2021/06/12 09:02:24;;;;;;;5.43;5.13;;;27.10;99.90;;;;;;5052915;28;20405;-59
2021/06/12 09:04:52;;;;;;;7.53;5.93;;;26.80;99.90;;;;;;5053426;28;20174;-59
2021/06/12 09:07:26;;;;;;;6.40;5.83;;;26.80;99.90;;;;;;5053763;28;20190;-59
2021/06/12 09:09:54;;;;;;;8.30;7.43;;;26.80;99.90;;;;;;5053519;28;20908;-58
2021/06/12 09:12:20;;;;;;;7.40;6.80;;;27.00;99.90;;;;;;5053093;28;20426;-59
2021/06/12 09:15:09;;;;;;;9.43;7.20;;;26.80;99.90;;;;;;5052937;28;20458;-59
2021/06/12 09:17:43;;;;;;;5.43;5.10;;;27.10;99.90;;;;;;5053020;28;20424;-59
2021/06/12 09:20:10;;;;;;;5.20;4.80;;;27.10;99.90;;;;;;5053368;28;20376;-59
2021/06/12 09:22:35;;;;;;;4.87;4.30;;;27.20;99.90;;;;;;5053158;28;20502;-59
2021/06/12 09:25:01;;;;;;;5.07;4.57;;;27.30;99.90;;;;;;5052420;28;20757;-59
2021/06/12 09:27:27;;;;;;;4.20;3.90;;;27.50;99.90;;;;;;5052906;28;20186;-59
2021/06/12 09:29:53;;;;;;;4.37;3.20;;;27.40;99.90;;;;;;5052891;28;20416;-59
2021/06/12 09:32:30;;;;;;;2.90;2.70;;;27.30;99.90;;;;;;5052747;28;20170;-59
2021/06/12 09:35:08;;;;;;;3.00;2.80;;;27.20;99.80;;;;;;5055005;28;20296;-59
2021/06/12 09:37:35;;;;;;;3.17;2.90;;;27.20;99.80;;;;;;5052730;28;20444;-58
2021/06/12 09:40:10;;;;;;;3.07;2.83;;;27.20;99.50;;;;;;5052778;28;20843;-59
2021/06/12 09:42:54;;;;;;;5.73;3.10;;;27.20;99.90;;;;;;5052825;28;20778;-56
2021/06/12 09:45:22;;;;;;;3.10;2.90;;;27.30;99.70;;;;;;5052383;28;20925;-59
2021/06/12 09:47:47;;;;;;;5.20;3.20;;;27.10;99.90;;;;;;5052450;28;20453;-59
2021/06/12 09:50:20;;;;;;;3.00;2.70;;;27.10;99.80;;;;;;5052835;28;20416;-58
2021/06/12 09:52:51;;;;;;;3.23;2.93;;;27.30;99.90;;;;;;5052891;28;20245;-59
2021/06/12 09:55:20;;;;;;;3.30;3.00;;;27.30;99.90;;;;;;5052864;28;20389;-59
2021/06/12 09:57:48;;;;;;;3.10;2.30;;;27.40;99.50;;;;;;5052820;28;20436;-59
2021/06/12 10:00:15;;;;;;;2.93;2.60;;;27.30;99.00;;;;;;5052236;28;20409;-58
2021/06/12 10:02:46;;;;;;;4.43;2.53;;;27.50;99.50;;;;;;5052530;28;20444;-59
2021/06/12 10:05:14;;;;;;;2.83;2.63;;;27.70;98.90;;;;;;5052814;28;20389;-59
2021/06/12 10:07:40;;;;;;;2.80;2.60;;;27.70;98.70;;;;;;5052479;28;20451;-58
2021/06/12 10:10:08;;;;;;;2.77;2.53;;;27.80;99.00;;;;;;5052389;28;20398;-57
2021/06/12 10:12:35;;;;;;;3.40;3.10;;;28.00;98.60;;;;;;5052419;28;20831;-59
2021/06/12 10:15:02;;;;;;;3.17;2.30;;;28.00;98.30;;;;;;5052011;28;20401;-59
2021/06/12 10:17:29;;;;;;;3.97;3.27;;;28.00;97.90;;;;;;5051939;28;20429;-58
2021/06/12 10:19:57;;;;;;;2.63;2.43;;;28.10;98.30;;;;;;5034624;28;20393;-59
2021/06/12 10:22:23;;;;;;;2.70;2.50;;;28.20;97.90;;;;;;5052418;28;20889;-59
2021/06/12 10:24:50;;;;;;;2.53;2.33;;;28.20;97.00;;;;;;5052361;28;20397;-59
2021/06/12 10:27:16;;;;;;;2.77;2.57;;;28.20;97.10;;;;;;5052504;28;20413;-59
2021/06/12 10:29:44;;;;;;;2.70;2.50;;;28.10;97.60;;;;;;5052097;28;20398;-59
2021/06/12 10:32:12;;;;;;;2.53;2.33;;;28.30;97.20;;;;;;5052166;28;20406;-59
2021/06/12 10:34:39;;;;;;;3.97;2.80;;;28.40;97.50;;;;;;5052719;28;20406;-59
2021/06/12 10:37:07;;;;;;;2.93;2.53;;;28.40;96.30;;;;;;5055823;28;20443;-57
2021/06/12 10:39:36;;;;;;;4.57;2.60;;;28.50;95.80;;;;;;5055931;28;20409;-57
2021/06/12 10:42:13;;;;;;;3.30;3.00;;;28.60;96.10;;;;;;5055934;28;20401;-59
2021/06/12 10:44:41;;;;;;;3.10;2.80;;;28.80;95.90;;;;;;5055911;28;20488;-59
2021/06/12 10:47:07;;;;;;;4.00;2.80;;;29.10;96.10;;;;;;5055800;28;20409;-59
2021/06/12 10:49:34;;;;;;;3.30;3.00;;;29.00;96.30;;;;;;5055899;28;20440;-59
2021/06/12 10:52:04;;;;;;;3.50;3.17;;;28.90;94.70;;;;;;5056048;28;20170;-57
2021/06/12 10:54:37;;;;;;;3.30;3.00;;;28.90;95.60;;;;;;5056118;28;20429;-59
2021/06/12 10:57:11;;;;;;;2.77;2.57;;;29.00;95.50;;;;;;5055953;28;20428;-59
2021/06/12 10:59:40;;;;;;;3.13;2.90;;;29.10;95.00;;;;;;5055615;28;20409;-59
2021/06/12 11:02:24;;;;;;;3.03;2.83;;;29.20;95.20;;;;;;5055256;28;20993;-60
2021/06/12 11:07:27;;;;;;;3.63;3.30;;;29.00;94.70;;;;;;5055715;28;20519;-60
2021/06/12 11:10:14;;;;;;;3.10;2.80;;;28.80;93.70;;;;;;5055514;28;20419;-59
2021/06/12 11:12:47;;;;;;;2.80;2.60;;;29.20;93.60;;;;;;5042333;28;20416;-60
2021/06/12 11:15:21;;;;;;;3.03;2.83;;;29.50;93.40;;;;;;5055256;28;20492;-60
2021/06/12 11:18:17;;;;;;;3.47;3.17;;;29.60;91.70;;;;;;5054914;28;20428;-60
2021/06/12 11:20:47;;;;;;;3.60;3.30;;;29.60;92.50;;;;;;5055861;28;20478;-60
2021/06/12 11:23:19;;;;;;;3.73;3.33;;;29.70;93.90;;;;;;5055233;28;20460;-58
2021/06/12 11:25:49;;;;;;;3.13;2.93;;;29.80;94.30;;;;;;5055440;28;20447;-57
2021/06/12 11:28:22;;;;;;;3.00;2.70;;;30.00;93.50;;;;;;5055060;28;20444;-59
2021/06/12 11:30:51;;;;;;;3.30;3.10;;;30.10;93.40;;;;;;5054982;28;20842;-60
2021/06/12 11:33:17;;;;;;;3.40;3.10;;;30.70;92.70;;;;;;5057111;28;20401;-60
2021/06/12 11:35:56;;;;;;;2.90;2.70;;;31.80;92.20;;;;;;5054663;28;20836;-60
2021/06/12 11:38:36;;;;;;;3.47;3.17;;;32.70;90.60;;;;;;5050919;28;20456;-60
2021/06/12 11:41:10;;;;;;;5.00;3.40;;;32.50;88.50;;;;;;5055052;28;20885;-59
2021/06/12 11:43:42;;;;;;;3.43;3.10;;;31.20;90.80;;;;;;5054873;28;20527;-60
2021/06/12 11:46:19;;;;;;;3.50;3.20;;;31.10;91.00;;;;;;5053897;28;20878;-60
2021/06/12 11:48:48;;;;;;;3.43;3.13;;;31.00;90.00;;;;;;5054824;28;20389;-59
2021/06/12 11:51:31;;;;;;;3.47;3.17;;;30.50;90.20;;;;;;5054543;28;20455;-60
2021/06/12 11:54:15;;;;;;;3.33;3.03;;;30.10;90.40;;;;;;5054950;28;20432;-60
2021/06/12 11:56:44;;;;;;;4.00;3.60;;;30.50;90.00;;;;;;5054614;28;20421;-59
2021/06/12 11:59:12;;;;;;;2.97;2.77;;;30.90;90.10;;;;;;5054569;28;20471;-60
2021/06/12 12:01:59;;;;;;;3.00;2.80;;;31.00;87.10;;;;;;5054389;28;20890;-60
2021/06/12 12:04:31;;;;;;;3.10;2.80;;;31.00;86.80;;;;;;5054320;28;20949;-60
2021/06/12 12:06:58;;;;;;;4.70;2.50;;;30.80;86.80;;;;;;5054497;28;20421;-60
2021/06/12 12:09:26;;;;;;;3.00;2.80;;;30.70;85.40;;;;;;5054486;28;20415;-60
2021/06/12 12:12:03;;;;;;;3.23;2.97;;;30.70;87.00;;;;;;5053109;28;20421;-60
2021/06/12 12:14:31;;;;;;;3.10;2.80;;;30.30;86.20;;;;;;5054381;28;20396;-57
2021/06/12 12:16:57;;;;;;;3.03;2.57;;;31.60;85.30;;;;;;5054061;28;20953;-58
2021/06/12 12:19:23;;;;;;;2.63;2.43;;;32.70;80.70;;;;;;5054125;28;20401;-59
2021/06/12 12:21:51;;;;;;;2.60;2.40;;;33.50;79.30;;;;;;5054264;28;20411;-59
2021/06/12 12:24:16;;;;;;;2.80;1.77;;;34.00;77.60;;;;;;5054742;28;20226;-57
2021/06/12 12:26:58;;;;;;;2.73;2.53;;;33.40;75.70;;;;;;5053701;28;20944;-59
2021/06/12 12:29:25;;;;;;;3.73;2.63;;;32.80;79.30;;;;;;5054234;28;20228;-59
2021/06/12 12:31:51;;;;;;;3.90;2.00;;;33.20;76.30;;;;;;5053892;28;20455;-59
2021/06/12 12:34:32;;;;;;;2.30;2.10;;;33.30;76.00;;;;;;5053684;28;20425;-59
2021/06/12 12:36:58;;;;;;;4.00;2.60;;;33.50;74.00;;;;;;5053795;28;20931;-59
2021/06/12 12:39:24;;;;;;;2.20;2.10;;;33.60;75.30;;;;;;5053731;28;20487;-59
2021/06/12 12:41:56;;;;;;;2.47;2.27;;;33.70;72.80;;;;;;5053360;28;20405;-58
2021/06/12 12:44:22;;;;;;;2.33;2.10;;;32.70;72.50;;;;;;5053504;28;20933;-59
2021/06/12 12:46:50;;;;;;;2.93;2.00;;;32.80;73.60;;;;;;5053462;28;20421;-58